createdAt,value
2019-04-30T00:00:18.186Z,100.00
2019-04-30T00:03:01.751Z,100.00
2019-04-30T00:05:35.149Z,100.00
2019-04-30T00:08:05.997Z,100.00
2019-04-30T00:10:41.346Z,100.00
2019-04-30T00:13:14.538Z,100.00
2019-04-30T00:15:43.134Z,100.00
2019-04-30T00:18:15.514Z,100.00
2019-04-30T00:20:47.773Z,100.00
2019-04-30T00:23:22.590Z,100.00
2019-04-30T00:25:50.631Z,100.00
2019-04-30T00:28:21.777Z,100.00
2019-04-30T00:30:52.707Z,100.00
2019-04-30T00:33:27.489Z,100.00
2019-04-30T00:35:58.089Z,100.00
2019-04-30T00:38:33.526Z,100.00
2019-04-30T00:41:06.929Z,100.00
2019-04-30T00:43:37.792Z,100.00
2019-04-30T00:46:08.398Z,100.00
2019-04-30T00:48:39.675Z,100.00
2019-04-30T00:51:17.877Z,100.00
2019-04-30T00:53:48.509Z,100.00
2019-04-30T00:56:19.828Z,100.00
2019-04-30T00:58:48.333Z,100.00
2019-04-30T01:01:21.254Z,100.00
2019-04-30T01:03:59.638Z,100.00
2019-04-30T01:06:30.788Z,100.00
2019-04-30T01:09:05.379Z,100.00
2019-04-30T01:11:35.549Z,100.00
2019-04-30T01:14:06.660Z,100.00
2019-04-30T01:16:39.457Z,100.00
2019-04-30T01:19:21.287Z,100.00
2019-04-30T01:21:47.024Z,100.00
2019-04-30T01:24:16.151Z,100.00
2019-04-30T01:26:48.582Z,100.00
2019-04-30T01:29:20.509Z,100.00
2019-04-30T01:31:51.962Z,100.00
2019-04-30T01:34:22.975Z,100.00
2019-04-30T01:36:53.087Z,100.00
2019-04-30T01:39:29.977Z,100.00
2019-04-30T01:41:58.679Z,100.00
2019-04-30T01:44:30.639Z,100.00
2019-04-30T01:47:01.543Z,100.00
2019-04-30T01:49:42.231Z,100.00
2019-04-30T01:52:05.551Z,100.00
2019-04-30T01:54:36.720Z,100.00
2019-04-30T01:57:25.751Z,100.00
2019-04-30T02:00:04.416Z,100.00
2019-04-30T02:02:36.987Z,100.00
2019-04-30T02:05:08.933Z,100.00
2019-04-30T02:07:40.414Z,100.00
2019-04-30T02:10:11.952Z,100.00
2019-04-30T02:12:43.016Z,100.00
2019-04-30T02:15:14.176Z,100.00
2019-04-30T02:17:45.160Z,100.00
2019-04-30T02:20:15.543Z,100.00
2019-04-30T02:22:48.497Z,100.00
2019-04-30T02:25:19.857Z,100.00
2019-04-30T02:27:50.926Z,100.00
2019-04-30T02:30:21.908Z,100.00
2019-04-30T02:32:53.161Z,100.00
2019-04-30T02:35:28.921Z,100.00
2019-04-30T02:38:20.168Z,100.00
2019-04-30T02:40:52.944Z,100.00
2019-04-30T02:43:25.550Z,100.00
2019-04-30T02:45:59.914Z,100.00
2019-04-30T02:48:33.232Z,100.00
2019-04-30T02:51:06.294Z,100.00
2019-04-30T02:53:52.555Z,100.00
2019-04-30T02:56:26.758Z,100.00
2019-04-30T02:59:00.393Z,100.00
2019-04-30T03:01:30.786Z,100.00
2019-04-30T03:04:00.990Z,100.00
2019-04-30T03:06:32.163Z,100.00
2019-04-30T03:09:04.180Z,100.00
2019-04-30T03:11:35.434Z,100.00
2019-04-30T03:14:06.665Z,100.00
2019-04-30T03:16:54.341Z,100.00
2019-04-30T03:19:33.043Z,100.00
2019-04-30T03:22:10.165Z,100.00
2019-04-30T03:24:42.935Z,100.00
2019-04-30T03:27:14.369Z,100.00
2019-04-30T03:29:45.453Z,100.00
2019-04-30T03:32:21.452Z,100.00
2019-04-30T03:34:51.549Z,100.00
2019-04-30T03:37:22.293Z,100.00
2019-04-30T03:39:53.217Z,100.00
2019-04-30T03:42:24.996Z,100.00
2019-04-30T03:44:56.027Z,100.00
2019-04-30T03:47:26.300Z,100.00
2019-04-30T03:50:00.019Z,100.00
2019-04-30T03:52:30.270Z,100.00
2019-04-30T03:55:02.895Z,100.00
2019-04-30T03:57:34.099Z,100.00
2019-04-30T04:00:09.410Z,100.00
2019-04-30T04:02:41.954Z,100.00
2019-04-30T04:05:23.680Z,100.00
2019-04-30T04:08:09.545Z,100.00
2019-04-30T04:10:45.418Z,100.00
2019-04-30T04:13:16.677Z,100.00
2019-04-30T04:15:49.929Z,100.00
2019-04-30T04:18:20.635Z,100.00
2019-04-30T04:21:07.021Z,100.00
2019-04-30T04:23:24.515Z,100.00
2019-04-30T04:25:55.689Z,100.00
2019-04-30T04:28:26.850Z,100.00
2019-04-30T04:30:59.926Z,100.00
2019-04-30T04:33:29.871Z,100.00
2019-04-30T04:36:01.055Z,100.00
2019-04-30T04:38:32.300Z,100.00
2019-04-30T04:41:03.387Z,100.00
2019-04-30T04:43:34.433Z,100.00
2019-04-30T04:46:05.463Z,100.00
2019-04-30T04:48:39.370Z,100.00
2019-04-30T04:51:26.801Z,100.00
2019-04-30T04:53:42.166Z,100.00
2019-04-30T04:56:13.235Z,100.00
2019-04-30T04:58:44.493Z,100.00
2019-04-30T05:01:15.720Z,100.00
2019-04-30T05:03:49.023Z,100.00
2019-04-30T05:06:21.857Z,100.00
2019-04-30T05:08:51.966Z,100.00
2019-04-30T05:11:23.244Z,100.00
2019-04-30T05:13:58.893Z,100.00
2019-04-30T05:16:30.217Z,100.00
2019-04-30T05:19:01.309Z,100.00
2019-04-30T05:21:41.971Z,100.00
2019-04-30T05:24:05.307Z,100.00
2019-04-30T05:26:38.589Z,100.00
2019-04-30T05:29:09.554Z,100.00
2019-04-30T05:31:40.717Z,100.00
2019-04-30T05:34:11.734Z,100.00
2019-04-30T05:36:42.844Z,100.00
2019-04-30T05:39:13.906Z,100.00
2019-04-30T05:41:44.031Z,100.00
2019-04-30T05:44:18.544Z,100.00
2019-04-30T05:46:49.633Z,100.00
2019-04-30T05:49:20.850Z,99.93
2019-04-30T05:51:55.496Z,93.92
2019-04-30T05:54:24.763Z,90.37
2019-04-30T05:56:55.740Z,88.28
2019-04-30T05:59:28.813Z,86.25
2019-04-30T06:01:59.619Z,85.22
2019-04-30T06:04:30.941Z,87.67
2019-04-30T06:07:01.894Z,85.20
2019-04-30T06:09:34.752Z,84.13
2019-04-30T06:12:10.851Z,86.97
2019-04-30T06:15:00.302Z,91.98
2019-04-30T06:17:32.350Z,90.78
2019-04-30T06:20:16.129Z,92.79
2019-04-30T06:22:38.603Z,95.03
2019-04-30T06:25:10.809Z,94.02
2019-04-30T06:27:41.905Z,92.14
2019-04-30T06:30:13.241Z,94.20
2019-04-30T06:32:44.739Z,91.27
2019-04-30T06:35:15.975Z,91.97
2019-04-30T06:37:48.915Z,89.26
2019-04-30T06:40:20.886Z,90.20
2019-04-30T06:42:52.439Z,89.58
2019-04-30T06:45:23.337Z,88.03
2019-04-30T06:47:55.951Z,87.60
2019-04-30T06:50:26.876Z,84.72
2019-04-30T06:53:01.020Z,83.51
2019-04-30T06:55:31.080Z,83.35
2019-04-30T06:58:11.940Z,81.48
2019-04-30T07:00:40.062Z,81.00
2019-04-30T07:03:10.828Z,79.45
2019-04-30T07:05:42.048Z,78.13
2019-04-30T07:08:39.681Z,78.74
2019-04-30T07:11:20.411Z,78.84
2019-04-30T07:13:52.186Z,76.48
2019-04-30T07:16:23.696Z,77.08
2019-04-30T07:18:54.660Z,72.90
2019-04-30T07:21:25.938Z,70.85
2019-04-30T07:23:56.856Z,72.21
2019-04-30T07:26:28.892Z,75.10
2019-04-30T07:29:02.602Z,77.83
2019-04-30T07:31:32.999Z,76.25
2019-04-30T07:34:04.016Z,78.74
2019-04-30T07:36:48.401Z,79.02
2019-04-30T07:39:10.005Z,81.61
2019-04-30T07:41:41.504Z,82.01
2019-04-30T07:44:29.456Z,83.06
2019-04-30T07:46:45.446Z,81.79
2019-04-30T07:49:16.748Z,79.21
2019-04-30T07:51:51.083Z,81.84
2019-04-30T07:54:20.523Z,82.05
2019-04-30T07:56:51.546Z,82.20
2019-04-30T07:59:22.669Z,81.87
2019-04-30T08:02:06.433Z,83.18
2019-04-30T08:04:29.293Z,82.97
2019-04-30T08:07:02.126Z,82.56
2019-04-30T08:09:39.796Z,81.41
2019-04-30T08:12:06.384Z,79.06
2019-04-30T08:14:39.068Z,78.60
2019-04-30T08:17:10.057Z,79.11
2019-04-30T08:19:41.127Z,78.92
2019-04-30T08:22:12.378Z,77.25
2019-04-30T08:24:43.446Z,75.80
2019-04-30T08:27:14.751Z,76.65
2019-04-30T08:29:45.714Z,74.54
2019-04-30T08:32:18.931Z,77.26
2019-04-30T08:34:50.222Z,76.47
2019-04-30T08:37:21.553Z,73.43
2019-04-30T08:39:52.494Z,70.07
2019-04-30T08:42:33.293Z,65.36
2019-04-30T08:44:58.444Z,67.10
2019-04-30T08:47:29.359Z,62.68
2019-04-30T08:50:02.704Z,62.86
2019-04-30T08:52:33.403Z,64.13
2019-04-30T08:55:16.189Z,63.87
2019-04-30T08:57:39.911Z,63.55
2019-04-30T09:00:14.908Z,64.16
2019-04-30T09:02:44.683Z,64.28
2019-04-30T09:05:20.513Z,64.38
2019-04-30T09:07:51.503Z,66.45
2019-04-30T09:10:22.758Z,67.86
2019-04-30T09:12:53.695Z,68.22
2019-04-30T09:15:24.932Z,68.83
2019-04-30T09:18:03.300Z,67.52
2019-04-30T09:20:29.155Z,67.86
2019-04-30T09:23:00.149Z,69.99
2019-04-30T09:25:31.313Z,67.50
2019-04-30T09:28:04.472Z,65.72
2019-04-30T09:30:35.480Z,65.30
2019-04-30T09:33:06.607Z,65.83
2019-04-30T09:35:39.477Z,65.65
2019-04-30T09:38:10.230Z,67.73
2019-04-30T09:40:41.788Z,68.08
2019-04-30T09:43:13.013Z,68.32
2019-04-30T09:45:44.051Z,68.36
2019-04-30T09:48:15.121Z,67.73
2019-04-30T09:50:46.533Z,66.70
2019-04-30T09:53:19.508Z,69.14
2019-04-30T09:55:51.007Z,68.24
2019-04-30T09:58:22.438Z,68.74
2019-04-30T10:00:53.527Z,69.01
2019-04-30T10:03:25.254Z,67.78
2019-04-30T10:05:56.683Z,62.70
2019-04-30T10:08:27.447Z,54.40
2019-04-30T10:11:09.755Z,52.62
2019-04-30T10:13:39.920Z,51.58
2019-04-30T10:16:29.678Z,48.96
2019-04-30T10:19:01.430Z,49.23
2019-04-30T10:21:32.556Z,51.59
2019-04-30T10:24:13.037Z,54.40
2019-04-30T10:26:39.697Z,54.34
2019-04-30T10:29:11.160Z,53.28
2019-04-30T10:31:42.292Z,58.61
2019-04-30T10:34:13.593Z,56.63
2019-04-30T10:36:44.787Z,59.44
2019-04-30T10:39:15.744Z,54.38
2019-04-30T10:41:46.947Z,53.50
2019-04-30T10:44:18.792Z,50.67
2019-04-30T10:46:50.073Z,54.54
2019-04-30T10:49:21.252Z,53.00
2019-04-30T10:51:51.583Z,54.90
2019-04-30T10:54:26.068Z,56.40
2019-04-30T10:56:55.343Z,57.84
2019-04-30T10:59:26.670Z,57.38
2019-04-30T11:01:59.198Z,56.79
2019-04-30T11:04:30.612Z,56.78
2019-04-30T11:07:01.533Z,56.70
2019-04-30T11:09:33.262Z,60.04
2019-04-30T11:12:09.502Z,59.31
2019-04-30T11:14:40.657Z,55.99
2019-04-30T11:17:11.803Z,55.52
2019-04-30T11:19:43.258Z,52.90
2019-04-30T11:22:14.349Z,49.89
2019-04-30T11:24:56.605Z,46.35
2019-04-30T11:27:18.395Z,45.34
2019-04-30T11:29:50.215Z,45.79
2019-04-30T11:32:23.776Z,48.17
2019-04-30T11:34:54.874Z,47.52
2019-04-30T11:37:26.072Z,49.17
2019-04-30T11:39:57.176Z,49.18
2019-04-30T11:42:28.423Z,49.40
2019-04-30T11:44:59.376Z,47.81
2019-04-30T11:47:32.280Z,47.83
2019-04-30T11:50:04.462Z,45.41
2019-04-30T11:52:35.743Z,44.85
2019-04-30T11:55:09.637Z,41.75
2019-04-30T11:57:40.948Z,46.82
2019-04-30T12:00:16.217Z,46.82
2019-04-30T12:02:46.827Z,50.14
2019-04-30T12:05:20.523Z,49.79
2019-04-30T12:07:52.770Z,48.52
2019-04-30T12:10:34.968Z,48.43
2019-04-30T12:13:09.528Z,49.89
2019-04-30T12:15:40.745Z,46.98
2019-04-30T12:18:14.420Z,47.20
2019-04-30T12:20:45.506Z,47.33
2019-04-30T12:23:16.509Z,48.52
2019-04-30T12:25:49.269Z,49.46
2019-04-30T12:28:20.310Z,47.11
2019-04-30T12:30:51.596Z,42.61
2019-04-30T12:33:22.626Z,40.97
2019-04-30T12:35:53.914Z,42.71
2019-04-30T12:38:24.812Z,42.46
2019-04-30T12:40:55.053Z,38.91
2019-04-30T12:43:35.238Z,39.78
2019-04-30T12:46:14.776Z,37.74
2019-04-30T12:48:54.428Z,35.24
2019-04-30T12:51:31.029Z,38.64
2019-04-30T12:54:07.665Z,39.23
2019-04-30T12:56:57.141Z,39.03
2019-04-30T12:59:33.248Z,41.32
2019-04-30T13:02:13.021Z,39.86
2019-04-30T13:04:50.444Z,37.03
2019-04-30T13:07:32.125Z,38.18
2019-04-30T13:10:11.480Z,40.52
2019-04-30T13:12:44.325Z,40.18
2019-04-30T13:15:16.165Z,40.09
2019-04-30T13:17:50.137Z,41.96
2019-04-30T13:20:29.320Z,43.87
2019-04-30T13:23:05.091Z,43.44
2019-04-30T13:25:51.228Z,42.85
2019-04-30T13:28:25.467Z,43.80
2019-04-30T13:31:04.726Z,43.83
2019-04-30T13:33:47.899Z,43.83
2019-04-30T13:36:23.093Z,44.97
2019-04-30T13:38:59.390Z,46.37
2019-04-30T13:41:46.004Z,46.13
2019-04-30T13:44:19.521Z,44.71
2019-04-30T13:46:49.805Z,40.82
2019-04-30T13:49:21.090Z,39.89
2019-04-30T13:51:58.873Z,43.50
2019-04-30T13:54:41.486Z,44.63
2019-04-30T13:57:20.483Z,44.10
2019-04-30T13:59:59.632Z,46.00
2019-04-30T14:02:40.077Z,44.79
2019-04-30T14:05:20.469Z,43.65
2019-04-30T14:08:09.543Z,44.86
2019-04-30T14:10:49.327Z,41.46
2019-04-30T14:13:26.242Z,39.50
2019-04-30T14:16:01.587Z,39.83
2019-04-30T14:18:34.186Z,37.92
2019-04-30T14:21:10.788Z,36.65
2019-04-30T14:23:41.928Z,35.29
2019-04-30T14:26:13.221Z,38.76
2019-04-30T14:28:44.239Z,38.06
2019-04-30T14:31:15.709Z,38.83
2019-04-30T14:33:46.839Z,36.70
2019-04-30T14:36:19.296Z,36.30
2019-04-30T14:38:49.946Z,35.71
2019-04-30T14:41:21.652Z,34.50
2019-04-30T14:43:57.529Z,33.22
2019-04-30T14:46:42.539Z,35.20
2019-04-30T14:49:33.040Z,35.86
2019-04-30T14:52:04.902Z,37.33
2019-04-30T14:54:37.797Z,37.27
2019-04-30T14:57:25.908Z,36.69
2019-04-30T15:00:01.854Z,37.41
2019-04-30T15:02:33.317Z,35.73
2019-04-30T15:05:08.816Z,35.43
2019-04-30T15:07:39.744Z,35.97
2019-04-30T15:10:11.215Z,34.32
2019-04-30T15:12:42.162Z,34.23
2019-04-30T15:15:14.291Z,34.52
2019-04-30T15:17:45.185Z,34.70
2019-04-30T15:20:16.714Z,32.53
2019-04-30T15:22:55.518Z,32.14
2019-04-30T15:25:34.034Z,31.90
2019-04-30T15:27:59.619Z,31.07
2019-04-30T15:30:29.822Z,30.67
2019-04-30T15:33:18.780Z,30.34
2019-04-30T15:35:50.306Z,30.47
2019-04-30T15:38:23.062Z,30.71
2019-04-30T15:40:54.038Z,29.34
2019-04-30T15:43:25.608Z,29.39
2019-04-30T15:45:57.330Z,28.81
2019-04-30T15:48:28.488Z,27.26
2019-04-30T15:50:59.528Z,27.21
2019-04-30T15:53:30.706Z,28.72
2019-04-30T15:56:01.732Z,29.19
2019-04-30T15:58:34.580Z,29.18
2019-04-30T16:01:09.009Z,30.07
2019-04-30T16:03:41.774Z,30.70
2019-04-30T16:06:12.755Z,30.92
2019-04-30T16:08:47.312Z,30.62
2019-04-30T16:11:26.031Z,29.36
2019-04-30T16:14:09.647Z,30.62
2019-04-30T16:16:42.450Z,29.95
2019-04-30T16:19:13.466Z,29.95
2019-04-30T16:21:44.545Z,29.56
2019-04-30T16:24:15.710Z,30.51
2019-04-30T16:26:50.654Z,29.21
2019-04-30T16:29:19.623Z,29.66
2019-04-30T16:31:51.031Z,31.14
2019-04-30T16:34:21.939Z,31.31
2019-04-30T16:36:56.385Z,30.44
2019-04-30T16:39:28.795Z,31.20
2019-04-30T16:42:00.081Z,30.03
2019-04-30T16:44:31.146Z,30.49
2019-04-30T16:47:13.106Z,30.31
2019-04-30T16:49:35.060Z,30.04
2019-04-30T16:52:05.472Z,30.28
2019-04-30T16:54:36.714Z,29.92
2019-04-30T16:57:10.086Z,28.96
2019-04-30T16:59:43.820Z,28.22
2019-04-30T17:02:15.018Z,27.06
2019-04-30T17:04:53.808Z,27.41
2019-04-30T17:07:26.482Z,25.11
2019-04-30T17:10:05.593Z,26.30
2019-04-30T17:12:53.213Z,26.18
2019-04-30T17:15:29.219Z,26.70
2019-04-30T17:18:00.432Z,28.44
2019-04-30T17:20:31.597Z,27.20
2019-04-30T17:23:02.502Z,27.22
2019-04-30T17:25:33.996Z,27.51
2019-04-30T17:28:05.256Z,28.76
2019-04-30T17:30:36.474Z,28.94
2019-04-30T17:33:09.532Z,28.75
2019-04-30T17:35:39.361Z,28.42
2019-04-30T17:38:11.685Z,27.99
2019-04-30T17:40:42.650Z,29.00
2019-04-30T17:43:14.032Z,29.79
2019-04-30T17:45:45.079Z,31.21
2019-04-30T17:48:16.398Z,30.88
2019-04-30T17:50:49.635Z,30.85
2019-04-30T17:53:20.726Z,32.35
2019-04-30T17:55:51.760Z,34.38
2019-04-30T17:58:25.849Z,32.96
2019-04-30T18:00:59.798Z,32.98
2019-04-30T18:03:30.981Z,33.76
2019-04-30T18:06:02.211Z,34.28
2019-04-30T18:08:32.284Z,34.52
2019-04-30T18:11:03.428Z,34.99
2019-04-30T18:13:34.803Z,35.19
2019-04-30T18:16:06.499Z,35.56
2019-04-30T18:18:42.537Z,36.90
2019-04-30T18:21:19.085Z,37.41
2019-04-30T18:24:08.656Z,37.76
2019-04-30T18:26:44.642Z,39.03
2019-04-30T18:29:16.211Z,38.75
2019-04-30T18:31:47.570Z,38.27
2019-04-30T18:34:19.993Z,38.95
2019-04-30T18:36:51.369Z,39.73
2019-04-30T18:39:22.212Z,40.88
2019-04-30T18:41:53.654Z,40.90
2019-04-30T18:44:29.466Z,41.47
2019-04-30T18:47:00.679Z,41.80
2019-04-30T18:49:33.296Z,42.23
2019-04-30T18:52:03.580Z,42.82
2019-04-30T18:54:34.833Z,42.65
2019-04-30T18:57:08.897Z,43.75
2019-04-30T18:59:40.169Z,43.84
2019-04-30T19:02:13.357Z,44.12
2019-04-30T19:04:44.576Z,43.85
2019-04-30T19:07:20.052Z,44.31
2019-04-30T19:09:58.905Z,44.96
2019-04-30T19:16:08.861Z,46.04
2019-04-30T19:18:23.003Z,46.10
2019-04-30T19:20:57.453Z,46.73
2019-04-30T19:23:31.529Z,46.70
2019-04-30T19:26:02.651Z,46.83
2019-04-30T19:28:36.026Z,47.15
2019-04-30T19:31:11.695Z,47.74
2019-04-30T19:33:48.855Z,47.99
2019-04-30T19:36:33.906Z,49.26
2019-04-30T19:38:55.074Z,48.87
2019-04-30T19:41:26.245Z,49.23
2019-04-30T19:43:57.260Z,50.08
2019-04-30T19:46:29.324Z,50.16
2019-04-30T19:49:00.233Z,50.21
2019-04-30T19:51:32.112Z,50.81
2019-04-30T19:54:03.226Z,51.26
2019-04-30T19:56:34.329Z,52.46
2019-04-30T19:59:05.915Z,52.31
2019-04-30T20:04:36.786Z,52.30
2019-04-30T20:07:08.841Z,52.75
2019-04-30T20:09:42.983Z,52.92
2019-04-30T20:12:13.366Z,52.42
2019-04-30T20:14:44.538Z,52.96
2019-04-30T20:17:15.812Z,53.33
2019-04-30T20:19:49.715Z,53.99
2019-04-30T20:22:22.848Z,53.67
2019-04-30T20:24:53.017Z,53.79
2019-04-30T20:27:24.343Z,53.37
2019-04-30T20:29:56.228Z,51.90
2019-04-30T20:32:36.223Z,51.44
2019-04-30T20:35:02.720Z,51.23
2019-04-30T20:37:54.936Z,51.99
2019-04-30T20:40:33.280Z,53.29
2019-04-30T20:43:00.696Z,55.49
2019-04-30T20:45:33.135Z,56.24
2019-04-30T20:48:05.430Z,58.45
2019-04-30T20:50:38.102Z,59.38
2019-04-30T20:53:09.370Z,60.05
2019-04-30T20:55:40.837Z,61.63
2019-04-30T20:58:13.448Z,62.60
2019-04-30T21:00:44.789Z,63.89
2019-04-30T21:03:15.848Z,64.95
2019-04-30T21:05:46.869Z,66.04
2019-04-30T21:08:17.023Z,65.69
2019-04-30T21:10:49.445Z,66.28
2019-04-30T21:13:20.655Z,67.60
2019-04-30T21:15:54.835Z,68.34
2019-04-30T21:18:24.608Z,68.96
2019-04-30T21:20:55.758Z,70.02
2019-04-30T21:23:26.659Z,71.39
2019-04-30T21:25:58.981Z,72.81
2019-04-30T21:28:30.096Z,72.97
2019-04-30T21:31:02.874Z,74.38
2019-04-30T21:33:38.449Z,73.82
2019-04-30T21:36:18.887Z,73.19
2019-04-30T21:38:50.115Z,74.12
2019-04-30T21:41:21.388Z,74.42
2019-04-30T21:43:52.290Z,74.55
2019-04-30T21:46:22.446Z,74.83
2019-04-30T21:48:53.545Z,75.27
2019-04-30T21:51:24.531Z,76.79
2019-04-30T21:53:55.651Z,77.60
2019-04-30T21:56:26.621Z,77.92
2019-04-30T21:58:57.697Z,77.82
2019-04-30T22:01:29.303Z,77.61
2019-04-30T22:04:00.664Z,78.96
2019-04-30T22:06:31.640Z,79.60
2019-04-30T22:09:09.709Z,80.11
2019-04-30T22:11:40.837Z,80.63
2019-04-30T22:14:12.629Z,80.89
2019-04-30T22:16:43.732Z,81.39
2019-04-30T22:19:13.943Z,81.86
2019-04-30T22:21:45.463Z,84.43
2019-04-30T22:24:16.309Z,83.70
2019-04-30T22:26:47.474Z,84.91
2019-04-30T22:29:19.130Z,85.98
2019-04-30T22:31:50.361Z,86.83
2019-04-30T22:34:21.905Z,87.58
2019-04-30T22:36:54.469Z,88.85
2019-04-30T22:39:30.080Z,91.98
2019-04-30T22:42:04.392Z,90.55
2019-04-30T22:44:35.273Z,92.78
2019-04-30T22:47:06.711Z,93.28
2019-04-30T22:49:37.771Z,93.12
2019-04-30T22:52:09.051Z,94.27
2019-04-30T22:54:40.034Z,92.89
2019-04-30T22:57:10.151Z,92.67
2019-04-30T22:59:49.838Z,92.23
2019-04-30T23:02:21.251Z,92.90
2019-04-30T23:04:53.446Z,92.50
2019-04-30T23:07:27.229Z,92.17
2019-04-30T23:09:58.565Z,92.28
2019-04-30T23:12:29.599Z,92.21
2019-04-30T23:15:00.795Z,91.92
2019-04-30T23:17:31.809Z,91.86
2019-04-30T23:20:03.421Z,91.82
2019-04-30T23:22:34.458Z,91.87
2019-04-30T23:25:06.466Z,91.97
2019-04-30T23:27:37.346Z,94.20
2019-04-30T23:30:08.869Z,95.12
2019-04-30T23:32:39.809Z,95.93
2019-04-30T23:35:10.301Z,97.10
2019-04-30T23:37:41.588Z,97.91
2019-04-30T23:40:30.375Z,100.00
2019-04-30T23:43:01.667Z,100.00
2019-04-30T23:45:32.581Z,100.00
2019-04-30T23:48:03.711Z,100.00
2019-04-30T23:50:34.644Z,100.00
2019-04-30T23:53:05.943Z,100.00
2019-04-30T23:55:37.016Z,100.00
2019-04-30T23:58:08.446Z,100.00
